首页
METAR-TAF:

METAR-TAF

机场 :

蓬塔阿雷纳斯, 智利

纬度: 53-00S, 经度: 070-51W, 海拔: 37米

当前天气观测

该预报发布于13分钟前的02:00 UTC
风速5节,风向南转西南
温度 4°C
湿度 70%
气压 1019 hPa
能见度10公里或以上
少量云层高于4000英尺

METAR: SCCI 220200Z 20005KT 9999 FEW040 04/M01 Q1019 NOSIG

时间: 23:13 (02:13 UTC)

预报

该预报发布于3小时和43分钟前的22:30 UTC
预报有效从22日的 00点(UTC)到 23日的 00点(UTC)
风速7节,风向南转南东
能见度10公里或以上
1500米以下无云,无积雨云
短暂存在
从 22日的 01点(UTC)到 22日的 04点(UTC)
风速14节,风向
成为
从 22日的 11点(UTC)到 22日的 13点(UTC)
风速7节,风向西转西南
成为
从 22日的 18点(UTC)到 22日的 20点(UTC)
能见度10公里或以上
少量云层高于4000英尺
成为
从 22日的 20点(UTC)到 22日的 22点(UTC)
风速4节,风向南转南东

TAF: SCCI 212230Z 2200/2300 15007KT CAVOK TN00/2209Z TX11/2220Z TEMPO 2201/2204 18014KT BECMG 2211/2213 25007KT BECMG 2218/2220 9999 FEW040 BECMG 2220/2222 16004KT

超过4000个机场的气象观测和天气预报(METAR&TAF报告)。

可查询的气象台以黄色和红色小点在地图上表示。

将鼠标移到小点上方,可查看气象台名称。

然后点击查看天气观测和预报。

如需切换地图:点击带黑十字的绿色按钮放大地图;点击带横线的绿色按钮缩小地图;或者点击绿色箭头查看邻近地区的地图。


METAR-TAF: